Time;durP1;ratioP1;P1;durP2;ratioP2;P2;SDS_P1;SDS_P2;PMS_P1;PMS_P2;Temp;Humidity;BMP_temperature;BMP_pressure;BME280_temperature;BME280_humidity;BME280_pressure;Samples;Min_cycle;Max_cycle;Signal;HPM_P1;HPM_P2
2022/12/09 00:02:05;;;;;;;28.58;17.30;;;;;;;1.24;100.00;100624.91;5061934;28;20053;-69
2022/12/09 00:04:30;;;;;;;30.70;18.27;;;;;;;1.25;100.00;100630.13;5061054;28;20048;-69
2022/12/09 00:06:56;;;;;;;29.48;17.92;;;;;;;1.27;100.00;100625.94;5062148;28;20033;-69
2022/12/09 00:09:21;;;;;;;28.15;17.05;;;;;;;1.28;100.00;100627.72;5062025;28;20051;-69
2022/12/09 00:11:46;;;;;;;27.20;17.25;;;;;;;1.29;100.00;100631.16;5061196;28;20031;-69
2022/12/09 00:14:12;;;;;;;30.08;17.13;;;;;;;1.30;100.00;100625.22;5064425;28;20313;-69
2022/12/09 00:16:38;;;;;;;29.45;16.88;;;;;;;1.30;100.00;100626.09;5065049;28;20013;-69
2022/12/09 00:19:03;;;;;;;30.30;17.50;;;;;;;1.31;100.00;100627.00;5065837;28;20052;-69
2022/12/09 00:21:33;;;;;;;28.02;16.98;;;;;;;1.34;100.00;100622.06;5065771;28;20036;-69
2022/12/09 00:24:01;;;;;;;29.35;16.95;;;;;;;1.37;100.00;100617.09;5064578;28;20067;-69
2022/12/09 00:26:27;;;;;;;31.73;18.33;;;;;;;1.37;100.00;100617.09;5065223;28;20032;-69
2022/12/09 00:28:53;;;;;;;31.35;17.58;;;;;;;1.38;100.00;100619.75;5065509;28;20020;-69
2022/12/09 00:31:23;;;;;;;30.77;18.48;;;;;;;1.39;100.00;100618.94;5065656;28;20029;-69
2022/12/09 00:33:49;;;;;;;29.73;17.73;;;;;;;1.39;100.00;100625.75;5065495;28;20246;-69
2022/12/09 00:36:18;;;;;;;32.28;17.52;;;;;;;1.40;100.00;100627.53;5065462;28;20029;-69
2022/12/09 00:38:43;;;;;;;32.83;18.08;;;;;;;1.43;100.00;100630.25;5064211;28;20036;-69
2022/12/09 00:41:10;;;;;;;35.85;18.85;;;;;;;1.43;100.00;100629.38;5065311;28;20040;-69
2022/12/09 00:43:35;;;;;;;30.77;17.75;;;;;;;1.44;100.00;100618.34;5065113;28;20036;-69
2022/12/09 00:46:01;;;;;;;33.50;18.60;;;;;;;1.44;100.00;100619.22;5065215;28;20053;-69
2022/12/09 00:48:27;;;;;;;33.58;19.50;;;;;;;1.41;100.00;100616.47;5065396;28;20360;-69
2022/12/09 00:50:52;;;;;;;33.40;19.17;;;;;;;1.39;100.00;100629.22;5065190;28;20263;-69
2022/12/09 00:53:18;;;;;;;32.80;18.27;;;;;;;1.40;100.00;100627.53;5064154;28;20033;-69
2022/12/09 00:55:44;;;;;;;35.45;19.48;;;;;;;1.38;100.00;100624.00;5064036;28;20151;-69
2022/12/09 00:58:11;;;;;;;33.97;18.75;;;;;;;1.37;100.00;100627.34;5065072;28;20096;-68
2022/12/09 01:00:36;;;;;;;35.75;19.27;;;;;;;1.35;100.00;100626.41;5065248;28;20167;-69
2022/12/09 01:03:01;;;;;;;35.08;18.98;;;;;;;1.31;100.00;100622.75;5063843;28;20271;-69
2022/12/09 01:05:27;;;;;;;35.70;20.08;;;;;;;1.30;100.00;100615.84;5064960;28;20040;-69
2022/12/09 01:07:52;;;;;;;34.70;19.67;;;;;;;1.30;100.00;100613.28;5064892;28;20047;-69
2022/12/09 01:10:18;;;;;;;33.95;19.25;;;;;;;1.32;100.00;100615.97;5065261;28;20037;-69
2022/12/09 01:12:43;;;;;;;37.42;19.88;;;;;;;1.34;100.00;100616.91;5064849;28;20032;-69
2022/12/09 01:15:09;;;;;;;36.50;20.10;;;;;;;1.35;100.00;100624.69;5064762;28;20199;-69
2022/12/09 01:17:38;;;;;;;34.05;19.25;;;;;;;1.37;100.00;100622.22;5063549;28;20048;-69
2022/12/09 01:20:05;;;;;;;;;;;;;;;1.44;100.00;100629.47;5065093;28;20021;-69
2022/12/09 01:22:30;;;;;;;35.03;18.73;;;;;;;1.43;100.00;100625.13;5064457;28;19927;-69
2022/12/09 01:24:56;;;;;;;34.03;18.55;;;;;;;1.43;100.00;100632.84;5063234;28;20183;-69
2022/12/09 01:27:21;;;;;;;36.45;19.75;;;;;;;1.43;100.00;100632.84;5064461;28;20036;-69
2022/12/09 01:29:47;;;;;;;37.25;20.17;;;;;;;1.45;100.00;100631.25;5063312;28;20707;-69
2022/12/09 01:32:12;;;;;;;37.13;20.13;;;;;;;1.45;100.00;100636.38;5064111;28;20060;-69
2022/12/09 01:34:37;;;;;;;37.85;20.25;;;;;;;1.47;100.00;100639.91;5064083;28;20021;-69
2022/12/09 01:37:03;;;;;;;35.65;19.95;;;;;;;1.49;100.00;100640.00;5064146;28;20025;-69
2022/12/09 01:39:28;;;;;;;37.25;20.27;;;;;;;1.50;100.00;100639.22;5064736;28;20029;-69
2022/12/09 01:41:53;;;;;;;36.75;20.20;;;;;;;1.50;100.00;100629.81;5064375;28;20048;-69
2022/12/09 01:44:23;;;;;;;37.78;20.73;;;;;;;1.50;100.00;100629.81;5062968;28;20051;-69
2022/12/09 01:46:53;;;;;;;36.50;19.77;;;;;;;1.51;100.00;100631.59;5045559;28;20206;-69
2022/12/09 01:49:46;;;;;;;39.95;20.55;;;;;;;1.52;100.00;100633.38;5063929;28;20027;-69
2022/12/09 01:52:22;;;;;;;40.72;21.90;;;;;;;1.52;100.00;100630.81;5060072;28;20049;-69
2022/12/09 01:54:50;;;;;;;41.05;21.05;;;;;;;1.54;100.00;100636.91;5064079;28;20048;-69
2022/12/09 01:57:16;;;;;;;40.97;21.73;;;;;;;1.55;100.00;100630.97;5062199;28;20217;-62
2022/12/09 01:59:42;;;;;;;37.80;21.58;;;;;;;1.59;100.00;100629.44;5062740;28;20307;-62
2022/12/09 02:02:13;;;;;;;41.95;22.10;;;;;;;1.62;100.00;100631.31;5063836;28;20024;-62
2022/12/09 02:04:40;;;;;;;38.85;21.95;;;;;;;1.66;100.00;100634.13;5063833;28;20021;-63
2022/12/09 02:07:09;;;;;;;41.28;21.50;;;;;;;1.67;100.00;100635.03;5063499;28;20035;-62
2022/12/09 02:09:35;;;;;;;46.53;23.65;;;;;;;1.71;100.00;100634.41;5063743;28;20036;-62
2022/12/09 02:12:10;;;;;;;41.92;21.58;;;;;;;1.73;100.00;100637.94;5063661;28;20025;-62
2022/12/09 02:15:01;;;;;;;41.20;22.60;;;;;;;1.77;100.00;100642.44;5062304;28;20095;-62
2022/12/09 02:17:34;;;;;;;44.63;23.00;;;;;;;1.75;100.00;100631.19;5063332;28;20043;-62
2022/12/09 02:20:14;;;;;;;44.08;22.27;;;;;;;1.71;100.00;100635.28;5063425;28;20025;-62
2022/12/09 02:22:47;;;;;;;41.67;21.73;;;;;;;1.73;100.00;100640.50;5062243;28;20106;-62
2022/12/09 02:25:51;;;;;;;40.80;21.40;;;;;;;1.76;100.00;100632.09;5063288;28;20045;-62
2022/12/09 02:28:43;;;;;;;37.90;20.60;;;;;;;1.76;100.00;100634.66;5063406;28;20029;-69
2022/12/09 02:31:35;;;;;;;45.88;23.85;;;;;;;1.73;100.00;100633.66;5061322;28;20067;-69
2022/12/09 02:34:13;;;;;;;44.08;23.35;;;;;;;1.70;100.00;100627.50;5061966;28;20264;-69
2022/12/09 02:36:53;;;;;;;45.42;23.67;;;;;;;1.71;100.00;100634.41;5062742;28;20037;-69
2022/12/09 02:39:28;;;;;;;46.15;23.75;;;;;;;1.73;100.00;100635.38;5062842;28;20024;-69
2022/12/09 02:41:55;;;;;;;43.67;23.35;;;;;;;1.74;100.00;100632.00;5060648;28;20024;-69
2022/12/09 02:44:23;;;;;;;46.70;23.98;;;;;;;1.77;100.00;100631.28;5061021;28;20221;-69
2022/12/09 02:46:50;;;;;;;44.78;23.80;;;;;;;1.78;100.00;100631.34;5062855;28;20220;-69
2022/12/09 02:49:18;;;;;;;46.40;23.75;;;;;;;1.80;100.00;100624.63;5062687;28;20295;-69
2022/12/09 02:51:44;;;;;;;46.05;23.33;;;;;;;1.82;100.00;100628.16;5062938;28;20191;-69
2022/12/09 02:54:13;;;;;;;47.30;23.77;;;;;;;1.83;100.00;100626.50;5062635;28;20024;-69
2022/12/09 02:56:44;;;;;;;45.28;23.63;;;;;;;1.83;100.00;100619.66;5061115;28;20020;-63
2022/12/09 02:59:09;;;;;;;47.38;23.85;;;;;;;1.82;100.00;100623.03;5061716;28;20310;-62
2022/12/09 03:02:06;;;;;;;44.20;22.30;;;;;;;1.84;100.00;100621.44;5061111;28;20025;-62
2022/12/09 03:04:32;;;;;;;47.75;23.27;;;;;;;1.85;100.00;100623.19;5035305;28;20306;-62
2022/12/09 03:07:11;;;;;;;48.15;24.55;;;;;;;1.85;100.00;100620.63;5062584;28;20032;-62
2022/12/09 03:09:43;;;;;;;53.83;24.08;;;;;;;1.83;100.00;100621.34;5062743;28;20020;-62
2022/12/09 03:12:13;;;;;;;53.50;23.73;;;;;;;1.81;100.00;100611.00;5062625;28;20033;-62
2022/12/09 03:14:44;;;;;;;49.97;25.00;;;;;;;1.81;100.00;100616.13;5061713;28;20235;-62
2022/12/09 03:17:19;;;;;;;55.10;25.25;;;;;;;1.84;100.00;100611.16;5062568;28;20056;-62
2022/12/09 03:19:49;;;;;;;52.83;24.92;;;;;;;1.85;100.00;100612.91;5063109;28;20048;-62
2022/12/09 03:22:24;;;;;;;51.88;23.60;;;;;;;1.87;100.00;100610.47;5062691;28;20119;-63
2022/12/09 03:24:54;;;;;;;57.00;25.02;;;;;;;1.86;100.00;100606.97;5062921;28;20021;-62
2022/12/09 03:27:27;;;;;;;57.40;26.42;;;;;;;1.87;100.00;100602.75;5061247;28;20025;-62
2022/12/09 03:29:54;;;;;;;56.00;25.20;;;;;;;1.85;100.00;100601.75;5057371;28;20043;-62
2022/12/09 03:32:24;;;;;;;52.70;24.67;;;;;;;1.82;100.00;100591.31;5062530;28;20052;-62
2022/12/09 03:34:53;;;;;;;53.70;26.58;;;;;;;1.82;100.00;100591.31;5062347;28;20092;-63
2022/12/09 03:37:19;;;;;;;;;;;;;;;1.81;100.00;100590.44;5062853;28;20272;-62
2022/12/09 03:39:47;;;;;;;50.47;23.45;;;;;;;1.68;100.00;100588.88;5059175;28;19922;-62
2022/12/09 03:42:20;;;;;;;53.92;25.05;;;;;;;1.60;100.00;100591.84;5050218;28;20021;-62
2022/12/09 03:44:54;;;;;;;61.38;27.17;;;;;;;1.54;100.00;100594.94;5058811;28;20100;-62
2022/12/09 03:47:20;;;;;;;62.08;25.92;;;;;;;1.48;100.00;100586.91;5062067;28;20148;-62
2022/12/09 03:49:45;;;;;;;57.38;26.70;;;;;;;1.46;100.00;100589.34;5065248;28;20306;-63
2022/12/09 03:52:15;;;;;;;59.67;26.48;;;;;;;1.46;100.00;100585.91;5066468;28;20045;-63
2022/12/09 03:54:46;;;;;;;60.08;27.20;;;;;;;1.44;100.00;100592.66;5055117;28;20064;-62
2022/12/09 03:57:17;;;;;;;65.20;27.38;;;;;;;1.38;100.00;100593.19;5059196;28;20093;-62
2022/12/09 03:59:50;;;;;;;63.08;26.48;;;;;;;1.36;100.00;100584.50;5055509;28;20116;-62
2022/12/09 04:02:15;;;;;;;60.88;26.67;;;;;;;1.33;100.00;100587.81;5065937;28;20303;-62
2022/12/09 04:04:41;;;;;;;59.83;27.15;;;;;;;1.32;100.00;100586.03;5064276;28;20053;-62
2022/12/09 04:07:07;;;;;;;57.55;26.63;;;;;;;1.36;100.00;100594.78;5058706;28;20027;-62
2022/12/09 04:09:32;;;;;;;68.65;28.60;;;;;;;1.41;100.00;100597.63;5061602;28;20259;-63
2022/12/09 04:11:57;;;;;;;65.10;27.85;;;;;;;1.43;100.00;100589.19;5058023;28;20071;-62
2022/12/09 04:14:23;;;;;;;62.17;27.45;;;;;;;1.44;100.00;100580.69;5064456;28;20033;-62
2022/12/09 04:16:48;;;;;;;63.92;27.63;;;;;;;1.44;100.00;100583.25;5062334;28;20171;-62
2022/12/09 04:19:13;;;;;;;65.18;27.67;;;;;;;1.45;100.00;100579.91;5063860;28;20017;-62
2022/12/09 04:21:39;;;;;;;53.65;26.17;;;;;;;1.45;100.00;100579.91;5054047;28;20029;-63
2022/12/09 04:24:05;;;;;;;56.47;26.40;;;;;;;1.44;100.00;100582.38;5065716;28;20025;-63
2022/12/09 04:26:30;;;;;;;53.75;27.02;;;;;;;1.43;100.00;100581.47;5065730;28;20172;-62
2022/12/09 04:28:55;;;;;;;50.92;25.70;;;;;;;1.44;100.00;100587.53;5064706;28;20042;-62
2022/12/09 04:31:21;;;;;;;47.58;24.83;;;;;;;1.46;100.00;100578.22;5065757;28;20028;-62
2022/12/09 04:33:46;;;;;;;54.72;26.30;;;;;;;1.48;100.00;100581.78;5058525;28;20048;-62
2022/12/09 04:36:14;;;;;;;49.67;24.67;;;;;;;1.50;100.00;100582.72;5055965;28;20083;-69
2022/12/09 04:38:40;;;;;;;47.38;25.00;;;;;;;1.52;100.00;100578.53;5061554;28;20079;-69
2022/12/09 04:41:06;;;;;;;48.95;25.52;;;;;;;1.54;100.00;100580.41;5061800;28;20017;-69
2022/12/09 04:43:31;;;;;;;48.13;24.77;;;;;;;1.59;100.00;100582.34;5047353;28;20175;-69
2022/12/09 04:46:01;;;;;;;51.10;26.00;;;;;;;1.60;100.00;100579.00;5061493;28;20072;-69
2022/12/09 04:48:27;;;;;;;48.67;25.75;;;;;;;1.63;100.00;100579.16;5064593;28;20025;-69
2022/12/09 04:50:53;;;;;;;48.65;25.27;;;;;;;1.62;100.00;100580.81;5065080;28;20079;-69
2022/12/09 04:53:18;;;;;;;47.22;25.08;;;;;;;1.62;100.00;100574.81;5065119;28;20056;-69
2022/12/09 04:55:43;;;;;;;46.38;24.67;;;;;;;1.62;100.00;100577.38;5065384;28;20024;-69
2022/12/09 04:58:09;;;;;;;46.60;24.10;;;;;;;1.63;100.00;100581.72;5065195;28;20199;-69
2022/12/09 05:00:34;;;;;;;46.83;24.05;;;;;;;1.62;100.00;100578.25;5063826;28;20048;-69
2022/12/09 05:02:59;;;;;;;43.42;24.33;;;;;;;1.60;100.00;100584.13;5063934;28;20052;-69
2022/12/09 05:05:24;;;;;;;47.15;24.02;;;;;;;1.56;100.00;100586.53;5047123;28;20025;-69
2022/12/09 05:07:50;;;;;;;48.33;24.80;;;;;;;1.55;100.00;100584.75;5065011;28;20033;-69
2022/12/09 05:10:15;;;;;;;45.60;24.48;;;;;;;1.58;100.00;100580.56;5064856;28;20028;-69
2022/12/09 05:12:40;;;;;;;49.08;24.38;;;;;;;1.59;100.00;100583.22;5064650;28;20172;-69
2022/12/09 05:15:06;;;;;;;43.55;22.95;;;;;;;1.59;100.00;100582.34;5064863;28;20092;-69
2022/12/09 05:17:31;;;;;;;49.38;24.83;;;;;;;1.59;100.00;100585.78;5045515;28;20037;-69
2022/12/09 05:19:57;;;;;;;42.92;24.25;;;;;;;1.57;100.00;100579.69;5061047;28;20060;-69
2022/12/09 05:22:22;;;;;;;45.10;23.67;;;;;;;1.58;100.00;100586.63;5064466;28;20266;-69
2022/12/09 05:24:48;;;;;;;48.20;23.85;;;;;;;1.58;100.00;100583.13;5064955;28;20021;-69
2022/12/09 05:27:13;;;;;;;49.22;23.88;;;;;;;1.59;100.00;100584.91;5064386;28;20052;-69
2022/12/09 05:29:38;;;;;;;45.70;24.05;;;;;;;1.63;100.00;100584.28;5064558;28;20032;-69
2022/12/09 05:32:05;;;;;;;47.20;24.65;;;;;;;1.65;100.00;100577.53;5064534;28;20088;-69
2022/12/09 05:34:30;;;;;;;47.22;24.65;;;;;;;1.62;100.00;100583.38;5063195;28;20039;-69
2022/12/09 05:36:55;;;;;;;50.65;26.30;;;;;;;1.60;100.00;100579.88;5062736;28;20032;-69
2022/12/09 05:39:21;;;;;;;49.65;24.80;;;;;;;1.58;100.00;100584.03;5064255;28;20055;-69
2022/12/09 05:41:46;;;;;;;44.70;23.83;;;;;;;1.59;100.00;100580.66;5064488;28;20024;-69
2022/12/09 05:44:12;;;;;;;48.97;25.25;;;;;;;1.59;100.00;100588.34;5064320;28;20032;-69
2022/12/09 05:46:37;;;;;;;43.75;23.83;;;;;;;1.56;100.00;100583.97;5064409;28;20028;-69
2022/12/09 05:49:03;;;;;;;47.88;24.60;;;;;;;1.58;100.00;100585.72;5064182;28;20092;-69
2022/12/09 05:51:29;;;;;;;47.60;25.13;;;;;;;1.56;100.00;100581.41;5063251;28;20029;-69
2022/12/09 05:53:59;;;;;;;48.25;23.83;;;;;;;1.55;100.00;100581.28;5063017;28;20095;-69
2022/12/09 05:56:24;;;;;;;44.30;23.88;;;;;;;1.59;100.00;100572.06;5063992;28;20091;-69
2022/12/09 05:58:52;;;;;;;47.65;24.42;;;;;;;1.62;100.00;100577.38;5064002;28;20017;-69
2022/12/09 06:01:18;;;;;;;49.03;24.40;;;;;;;1.60;100.00;100574.72;5046174;28;20105;-69
2022/12/09 06:03:46;;;;;;;43.25;22.40;;;;;;;1.61;100.00;100578.16;5046094;28;20056;-69
2022/12/09 06:06:14;;;;;;;48.05;24.75;;;;;;;1.62;100.00;100572.25;5062875;28;20296;-69
2022/12/09 06:08:40;;;;;;;49.33;24.50;;;;;;;1.63;100.00;100574.03;5063246;28;20063;-69
2022/12/09 06:11:14;;;;;;;47.42;24.05;;;;;;;1.64;100.00;100573.22;5063101;28;20052;-69
2022/12/09 06:13:39;;;;;;;47.15;24.15;;;;;;;1.65;100.00;100569.84;5063800;28;20021;-69
2022/12/09 06:16:06;;;;;;;48.20;23.90;;;;;;;1.66;100.00;100576.75;5063793;28;20060;-69
2022/12/09 06:18:32;;;;;;;45.58;23.50;;;;;;;1.65;100.00;100575.88;5063626;28;20033;-70
2022/12/09 06:20:57;;;;;;;44.72;24.42;;;;;;;1.68;100.00;100577.72;5063846;28;20043;-69
2022/12/09 06:23:23;;;;;;;48.42;24.30;;;;;;;1.70;100.00;100579.56;5062551;28;20036;-69
2022/12/09 06:25:49;;;;;;;43.92;22.60;;;;;;;1.71;100.00;100565.94;5063614;28;20203;-69
2022/12/09 06:28:14;;;;;;;43.33;23.17;;;;;;;1.74;100.00;100568.66;5062483;28;20095;-69
2022/12/09 06:30:40;;;;;;;47.33;24.23;;;;;;;1.76;100.00;100576.47;5063401;28;20043;-69
2022/12/09 06:33:05;;;;;;;44.78;23.40;;;;;;;1.75;100.00;100572.09;5063383;28;20179;-69
2022/12/09 06:35:31;;;;;;;49.95;23.95;;;;;;;1.76;100.00;100567.88;5063561;28;20025;-69
2022/12/09 06:37:56;;;;;;;44.20;22.60;;;;;;;1.76;100.00;100573.00;5063246;28;20066;-69
2022/12/09 06:40:22;;;;;;;41.28;22.63;;;;;;;1.73;100.00;100571.16;5061975;28;20175;-69
2022/12/09 06:42:50;;;;;;;47.20;23.83;;;;;;;1.68;100.00;100575.13;5063102;28;20025;-69
2022/12/09 06:45:19;;;;;;;50.67;24.38;;;;;;;1.65;100.00;100577.53;5061458;28;20172;-69
2022/12/09 06:47:45;;;;;;;45.78;24.08;;;;;;;1.64;100.00;100575.81;5063025;28;20028;-69
2022/12/09 06:50:10;;;;;;;45.65;22.60;;;;;;;1.62;100.00;100580.81;5062906;28;20048;-69
2022/12/09 06:52:37;;;;;;;47.00;23.95;;;;;;;1.61;100.00;100580.75;5062904;28;20029;-69
2022/12/09 06:55:03;;;;;;;45.97;22.42;;;;;;;1.59;100.00;100578.09;5062893;28;20271;-69
2022/12/09 06:57:29;;;;;;;41.55;22.95;;;;;;;1.59;100.00;100579.78;5062719;28;20039;-69
2022/12/09 06:59:54;;;;;;;43.97;23.15;;;;;;;1.57;100.00;100577.13;5059933;28;20025;-69
2022/12/09 07:02:20;;;;;;;44.47;23.23;;;;;;;1.51;100.00;100575.09;5061088;28;20061;-69
2022/12/09 07:04:45;;;;;;;48.22;24.75;;;;;;;1.48;100.00;100580.06;5061630;28;20021;-69
2022/12/09 07:07:11;;;;;;;49.28;24.52;;;;;;;1.44;100.00;100583.25;5062088;28;20156;-69
2022/12/09 07:09:36;;;;;;;45.90;24.27;;;;;;;1.42;100.00;100584.88;5062560;28;20039;-69
2022/12/09 07:12:02;;;;;;;44.70;23.63;;;;;;;1.38;100.00;100582.94;5062548;28;20029;-69
2022/12/09 07:14:27;;;;;;;44.67;23.90;;;;;;;1.34;100.00;100578.41;5044531;28;20029;-69
2022/12/09 07:16:52;;;;;;;47.47;23.48;;;;;;;1.29;100.00;100587.53;5061894;28;20088;-69
2022/12/09 07:19:20;;;;;;;47.28;24.35;;;;;;;1.25;100.00;100588.19;5062741;28;20307;-69
2022/12/09 07:21:46;;;;;;;47.53;23.83;;;;;;;1.20;100.00;100593.03;5062651;28;20345;-69
2022/12/09 07:24:12;;;;;;;47.63;23.20;;;;;;;1.16;100.00;100586.84;5062388;28;20040;-69
2022/12/09 07:26:38;;;;;;;46.58;23.73;;;;;;;1.15;100.00;100595.31;5062460;28;20347;-69
2022/12/09 07:29:04;;;;;;;46.05;23.40;;;;;;;1.13;100.00;100596.94;5062590;28;20079;-69
2022/12/09 07:31:30;;;;;;;45.53;23.23;;;;;;;1.11;100.00;100600.19;5061340;28;20036;-69
2022/12/09 07:33:56;;;;;;;47.42;24.52;;;;;;;1.11;100.00;100600.19;5059888;28;20028;-69
2022/12/09 07:36:24;;;;;;;46.78;23.77;;;;;;;1.10;100.00;100601.00;5061123;28;20257;-69
2022/12/09 07:39:01;;;;;;;44.63;23.42;;;;;;;1.10;100.00;100603.56;5062089;28;20079;-69
2022/12/09 07:41:27;;;;;;;47.20;23.83;;;;;;;1.09;100.00;100600.13;5061889;28;20271;-68
2022/12/09 07:43:52;;;;;;;47.85;24.60;;;;;;;1.08;100.00;100603.47;5062230;28;20031;-69
2022/12/09 07:46:19;;;;;;;47.30;23.17;;;;;;;1.07;100.00;100605.94;5062051;28;20040;-69
2022/12/09 07:48:45;;;;;;;49.72;22.73;;;;;;;1.06;100.00;100612.78;5062267;28;20020;-69
2022/12/09 07:51:11;;;;;;;46.05;22.90;;;;;;;1.06;100.00;100614.44;5061194;28;20052;-69
2022/12/09 07:53:37;;;;;;;45.50;23.45;;;;;;;1.04;100.00;100616.91;5062357;28;20175;-69
2022/12/09 07:56:08;;;;;;;47.30;23.67;;;;;;;1.07;100.00;100618.78;5062256;28;20075;-69
2022/12/09 07:58:34;;;;;;;41.88;22.67;;;;;;;1.07;100.00;100611.97;5062160;28;20016;-69
2022/12/09 08:01:06;;;;;;;51.97;24.80;;;;;;;1.08;100.00;100613.72;5062116;28;20107;-68
2022/12/09 08:03:32;;;;;;;48.58;23.83;;;;;;;1.10;100.00;100606.13;5061044;28;20029;-69
2022/12/09 08:05:57;;;;;;;43.78;22.30;;;;;;;1.11;100.00;100613.03;5060893;28;20040;-70
2022/12/09 08:08:22;;;;;;;44.42;23.17;;;;;;;1.11;100.00;100610.47;5061336;28;20025;-69
2022/12/09 08:10:48;;;;;;;46.72;23.67;;;;;;;1.11;100.00;100626.72;5061989;28;20153;-69
2022/12/09 08:13:14;;;;;;;44.70;23.33;;;;;;;1.03;100.00;100618.59;5060840;28;20310;-69
2022/12/09 08:15:39;;;;;;;48.47;23.27;;;;;;;0.97;100.00;100617.34;5062054;28;20025;-69
2022/12/09 08:18:05;;;;;;;45.47;22.20;;;;;;;0.94;100.00;100614.59;5062208;28;20028;-69
2022/12/09 08:20:30;;;;;;;48.20;22.13;;;;;;;0.93;100.00;100617.97;5061306;28;20187;-69
2022/12/09 08:22:56;;;;;;;42.53;22.90;;;;;;;0.92;100.00;100611.09;5060871;28;20033;-69
2022/12/09 08:25:22;;;;;;;48.80;23.08;;;;;;;0.90;100.00;100623.81;5061770;28;20020;-68
2022/12/09 08:27:47;;;;;;;46.97;22.83;;;;;;;0.91;100.00;100619.56;5061843;28;20041;-69
2022/12/09 08:30:13;;;;;;;45.97;22.13;;;;;;;0.93;100.00;100617.97;5061618;28;20027;-69
2022/12/09 08:32:38;;;;;;;42.25;22.35;;;;;;;0.92;100.00;100622.22;5061896;28;20027;-68
2022/12/09 08:35:04;;;;;;;43.50;21.90;;;;;;;0.92;100.00;100622.22;5063571;28;20032;-69
2022/12/09 08:37:29;;;;;;;47.72;23.15;;;;;;;0.91;100.00;100627.25;5063950;28;20036;-69
2022/12/09 08:39:54;;;;;;;45.05;23.27;;;;;;;0.90;100.00;100622.91;5065321;28;20291;-69
2022/12/09 08:42:19;;;;;;;40.88;21.48;;;;;;;0.87;100.00;100621.09;5062836;28;20031;-69
2022/12/09 08:44:45;;;;;;;47.05;24.60;;;;;;;0.86;100.00;100617.59;5065411;28;20067;-69
2022/12/09 08:47:10;;;;;;;44.75;23.63;;;;;;;0.82;100.00;100625.91;5065319;28;20163;-69
2022/12/09 08:49:35;;;;;;;51.30;25.05;;;;;;;0.80;100.00;100617.25;5065392;28;20029;-69
2022/12/09 08:52:01;;;;;;;46.60;24.02;;;;;;;0.83;100.00;100614.00;5064471;28;20033;-68
2022/12/09 08:54:26;;;;;;;47.50;24.13;;;;;;;0.87;100.00;100613.38;5065201;28;20021;-69
2022/12/09 08:56:56;;;;;;;47.90;23.88;;;;;;;0.88;100.00;100619.38;5065230;28;20153;-69
2022/12/09 08:59:22;;;;;;;50.42;24.42;;;;;;;0.80;100.00;100622.38;5046065;28;20291;-68
2022/12/09 09:01:48;;;;;;;54.00;25.65;;;;;;;0.78;100.00;100623.09;5045482;28;20024;-69
2022/12/09 09:04:16;;;;;;;51.67;24.60;;;;;;;0.77;100.00;100622.22;5065332;28;20021;-69
2022/12/09 09:06:43;;;;;;;50.40;24.25;;;;;;;0.77;100.00;100618.75;5064040;28;20021;-69
2022/12/09 09:09:10;;;;;;;56.08;25.27;;;;;;;0.74;100.00;100628.81;5064134;28;20024;-69
2022/12/09 09:11:36;;;;;;;55.55;25.23;;;;;;;0.74;100.00;100624.59;5064935;28;20923;-69
2022/12/09 09:14:06;;;;;;;51.15;24.83;;;;;;;0.73;100.00;100634.75;5064966;28;20264;-69
2022/12/09 09:16:32;;;;;;;53.22;24.65;;;;;;;0.75;100.00;100630.59;5063819;28;20276;-69
2022/12/09 09:18:58;;;;;;;52.38;25.95;;;;;;;0.79;100.00;100636.00;5064786;28;20057;-69
2022/12/09 09:21:27;;;;;;;54.08;26.23;;;;;;;0.88;100.00;100639.91;5064473;28;20047;-69
2022/12/09 09:23:53;;;;;;;56.92;26.45;;;;;;;0.96;100.00;100633.56;5063741;28;20044;-69
2022/12/09 09:26:21;;;;;;;56.70;26.75;;;;;;;1.04;100.00;100643.47;5064559;28;20025;-69
2022/12/09 09:28:47;;;;;;;56.13;27.05;;;;;;;1.11;100.00;100642.13;5064580;28;20087;-69
2022/12/09 09:31:18;;;;;;;55.78;26.20;;;;;;;1.17;100.00;100637.38;5063583;28;20032;-68
2022/12/09 09:33:45;;;;;;;56.63;25.67;;;;;;;1.14;100.00;100634.59;5064626;28;20051;-69
2022/12/09 09:36:22;;;;;;;52.75;25.27;;;;;;;1.13;100.00;100631.97;5064304;28;20172;-69
2022/12/09 09:38:49;;;;;;;56.00;25.08;;;;;;;1.15;100.00;100633.81;5064576;28;20009;-69
2022/12/09 09:41:36;;;;;;;52.60;24.92;;;;;;;1.23;100.00;100641.06;5064450;28;20131;-69
2022/12/09 09:44:03;;;;;;;54.33;24.40;;;;;;;1.26;100.00;100633.56;5064175;28;20021;-69
2022/12/09 09:46:37;;;;;;;50.28;24.42;;;;;;;1.28;100.00;100629.41;5061965;28;20082;-69
2022/12/09 09:49:06;;;;;;;52.60;25.10;;;;;;;1.29;100.00;100631.16;5063529;28;20074;-69
2022/12/09 09:51:34;;;;;;;52.90;24.88;;;;;;;1.29;100.00;100634.63;5064145;28;20171;-69
2022/12/09 09:53:59;;;;;;;49.78;24.75;;;;;;;1.27;100.00;100630.19;5064239;28;20025;-69
2022/12/09 09:56:44;;;;;;;51.17;25.50;;;;;;;1.24;100.00;100630.03;5063955;28;20280;-69
2022/12/09 09:59:38;;;;;;;50.40;23.52;;;;;;;1.22;100.00;100624.81;5062701;28;20021;-69
2022/12/09 10:02:19;;;;;;;53.55;24.52;;;;;;;1.24;100.00;100624.91;5064218;28;20093;-69
2022/12/09 10:05:01;;;;;;;53.20;23.52;;;;;;;1.26;100.00;100621.63;5063008;28;20079;-69
2022/12/09 10:07:40;;;;;;;50.67;22.98;;;;;;;1.31;100.00;100617.63;5063720;28;20036;-69
2022/12/09 10:10:20;;;;;;;46.50;22.08;;;;;;;1.36;100.00;100623.91;5062893;28;20048;-69
2022/12/09 10:13:14;;;;;;;44.15;21.02;;;;;;;1.41;100.00;100629.31;5063110;28;20301;-69
2022/12/09 10:15:50;;;;;;;43.83;21.65;;;;;;;1.41;100.00;100629.31;5054204;28;20032;-69
2022/12/09 10:18:24;;;;;;;43.80;22.17;;;;;;;1.39;100.00;100631.78;5063627;28;20029;-69
2022/12/09 10:20:50;;;;;;;48.65;23.42;;;;;;;1.36;100.00;100621.34;5063685;28;20282;-69
2022/12/09 10:23:16;;;;;;;48.78;23.45;;;;;;;1.36;100.00;100628.16;5063700;28;20029;-69
2022/12/09 10:25:53;;;;;;;48.97;23.45;;;;;;;1.41;100.00;100629.31;5062325;28;20364;-69
2022/12/09 10:28:31;;;;;;;51.33;23.52;;;;;;;1.48;100.00;100631.41;5062683;28;20658;-69
2022/12/09 10:30:57;;;;;;;43.75;21.25;;;;;;;1.50;100.00;100623.81;5063338;28;20017;-69
2022/12/09 10:33:27;;;;;;;43.22;21.60;;;;;;;1.46;100.00;100625.31;5063201;28;20084;-69
2022/12/09 10:35:53;;;;;;;41.42;20.48;;;;;;;1.40;99.52;100622.41;5063274;28;20091;-69
2022/12/09 10:38:20;;;;;;;43.00;20.52;;;;;;;1.33;99.51;100621.19;5063236;28;20029;-69
2022/12/09 10:40:46;;;;;;;42.70;19.77;;;;;;;1.28;98.91;100619.16;5063154;28;20021;-69
2022/12/09 10:43:40;;;;;;;46.25;21.08;;;;;;;1.28;100.00;100621.72;5061982;28;20090;-69
2022/12/09 10:46:22;;;;;;;42.58;21.08;;;;;;;1.30;100.00;100625.22;5062849;28;20051;-69
2022/12/09 10:48:47;;;;;;;49.15;22.63;;;;;;;1.32;100.00;100616.84;5062997;28;20020;-69
2022/12/09 10:51:20;;;;;;;47.30;22.58;;;;;;;1.34;100.00;100622.94;5063510;28;20044;-71
2022/12/09 10:53:51;;;;;;;50.42;22.48;;;;;;;1.32;100.00;100616.84;5062887;28;20047;-69
2022/12/09 10:56:23;;;;;;;48.85;21.92;;;;;;;1.33;100.00;100618.63;5063065;28;20044;-69
2022/12/09 10:59:06;;;;;;;50.17;23.70;;;;;;;1.35;100.00;100614.44;5060767;28;20071;-69
2022/12/09 11:01:47;;;;;;;47.20;22.10;;;;;;;1.40;100.00;100607.00;5062756;28;20279;-69
2022/12/09 11:04:13;;;;;;;46.70;21.13;;;;;;;1.43;100.00;100608.84;5062875;28;20025;-69
2022/12/09 11:06:40;;;;;;;49.60;21.63;;;;;;;1.46;100.00;100606.47;5062970;28;20271;-69
2022/12/09 11:09:05;;;;;;;50.50;22.60;;;;;;;1.49;100.00;100601.50;5062696;28;20021;-69
2022/12/09 11:11:57;;;;;;;50.47;22.60;;;;;;;1.53;100.00;100608.56;5062784;28;20039;-69
2022/12/09 11:14:32;;;;;;;44.47;21.20;;;;;;;1.52;99.69;100606.78;5056979;28;20044;-69
2022/12/09 11:17:10;;;;;;;47.78;20.67;;;;;;;1.51;99.55;100608.47;5062082;28;20092;-69